sensor_id;sensor_type;location;lat;lon;timestamp;pressure;altitude;pressure_sealevel;temperature;humidity
13767;BME280;47980;48.794;9.176;2023-02-16T00:01:16;99271.56;;;3.20;95.73
13767;BME280;47980;48.794;9.176;2023-02-16T00:03:50;99277.44;;;3.32;94.40
13767;BME280;47980;48.794;9.176;2023-02-16T00:06:23;99270.31;;;3.27;93.74
13767;BME280;47980;48.794;9.176;2023-02-16T00:08:55;99279.94;;;3.22;94.05
13767;BME280;47980;48.794;9.176;2023-02-16T00:11:31;99281.22;;;3.19;94.40
13767;BME280;47980;48.794;9.176;2023-02-16T00:14:22;99273.31;;;3.14;94.26
13767;BME280;47980;48.794;9.176;2023-02-16T00:16:56;99273.75;;;3.06;94.61
13767;BME280;47980;48.794;9.176;2023-02-16T00:19:30;99282.09;;;3.03;94.80
13767;BME280;47980;48.794;9.176;2023-02-16T00:22:05;99288.09;;;2.98;93.95
13767;BME280;47980;48.794;9.176;2023-02-16T00:24:36;99290.75;;;3.03;94.44
13767;BME280;47980;48.794;9.176;2023-02-16T00:27:11;99285.88;;;2.90;95.08
13767;BME280;47980;48.794;9.176;2023-02-16T00:29:43;99282.72;;;2.88;95.66
13767;BME280;47980;48.794;9.176;2023-02-16T00:32:15;99281.97;;;2.93;95.27
13767;BME280;47980;48.794;9.176;2023-02-16T00:34:47;99281.06;;;2.82;95.86
13767;BME280;47980;48.794;9.176;2023-02-16T00:37:18;99281.69;;;2.89;95.42
13767;BME280;47980;48.794;9.176;2023-02-16T00:39:50;99288.31;;;2.97;93.98
13767;BME280;47980;48.794;9.176;2023-02-16T00:42:26;99287.97;;;2.88;95.16
13767;BME280;47980;48.794;9.176;2023-02-16T00:45:00;99283.25;;;2.90;94.66
13767;BME280;47980;48.794;9.176;2023-02-16T00:47:35;99282.59;;;2.78;94.52
13767;BME280;47980;48.794;9.176;2023-02-16T00:50:14;99283.72;;;2.65;96.38
13767;BME280;47980;48.794;9.176;2023-02-16T00:52:46;99287.09;;;2.60;96.68
13767;BME280;47980;48.794;9.176;2023-02-16T00:55:19;99282.16;;;2.64;96.51
13767;BME280;47980;48.794;9.176;2023-02-16T00:57:55;99279.50;;;2.59;96.96
13767;BME280;47980;48.794;9.176;2023-02-16T01:00:29;99274.16;;;2.54;97.50
13767;BME280;47980;48.794;9.176;2023-02-16T01:03:04;99268.41;;;2.52;97.88
13767;BME280;47980;48.794;9.176;2023-02-16T01:05:37;99270.09;;;2.63;97.51
13767;BME280;47980;48.794;9.176;2023-02-16T01:08:10;99274.78;;;2.61;96.71
13767;BME280;47980;48.794;9.176;2023-02-16T01:11:00;99274.47;;;2.57;98.60
13767;BME280;47980;48.794;9.176;2023-02-16T01:13:43;99282.91;;;2.59;97.79
13767;BME280;47980;48.794;9.176;2023-02-16T01:16:19;99278.50;;;2.65;96.05
13767;BME280;47980;48.794;9.176;2023-02-16T01:18:52;99284.59;;;2.71;96.53
13767;BME280;47980;48.794;9.176;2023-02-16T01:21:24;99286.75;;;2.74;97.10
13767;BME280;47980;48.794;9.176;2023-02-16T01:23:55;99284.59;;;2.71;96.50
13767;BME280;47980;48.794;9.176;2023-02-16T01:26:28;99291.78;;;2.58;96.75
13767;BME280;47980;48.794;9.176;2023-02-16T01:29:01;99279.81;;;2.46;97.59
13767;BME280;47980;48.794;9.176;2023-02-16T01:31:33;99287.69;;;2.46;98.30
13767;BME280;47980;48.794;9.176;2023-02-16T01:34:04;99274.59;;;2.46;98.50
13767;BME280;47980;48.794;9.176;2023-02-16T01:36:38;99274.53;;;2.40;98.64
13767;BME280;47980;48.794;9.176;2023-02-16T01:39:12;99267.69;;;2.39;98.38
13767;BME280;47980;48.794;9.176;2023-02-16T01:42:00;99267.47;;;2.41;98.03
13767;BME280;47980;48.794;9.176;2023-02-16T01:44:37;99261.75;;;2.44;98.80
13767;BME280;47980;48.794;9.176;2023-02-16T01:47:30;99265.78;;;2.52;98.04
13767;BME280;47980;48.794;9.176;2023-02-16T01:50:12;99266.81;;;2.51;97.91
13767;BME280;47980;48.794;9.176;2023-02-16T01:52:50;99264.53;;;2.37;98.98
13767;BME280;47980;48.794;9.176;2023-02-16T01:55:25;99260.25;;;2.31;97.89
13767;BME280;47980;48.794;9.176;2023-02-16T01:58:00;99257.94;;;2.35;98.77
13767;BME280;47980;48.794;9.176;2023-02-16T02:03:40;99244.88;;;2.35;99.16
13767;BME280;47980;48.794;9.176;2023-02-16T02:06:32;99245.59;;;2.30;99.01
13767;BME280;47980;48.794;9.176;2023-02-16T02:09:07;99249.88;;;2.36;98.74
13767;BME280;47980;48.794;9.176;2023-02-16T02:11:45;99246.75;;;2.39;97.68
13767;BME280;47980;48.794;9.176;2023-02-16T02:14:24;99249.69;;;2.43;97.63
13767;BME280;47980;48.794;9.176;2023-02-16T02:16:59;99246.28;;;2.42;97.72
13767;BME280;47980;48.794;9.176;2023-02-16T02:19:40;99250.25;;;2.67;95.98
13767;BME280;47980;48.794;9.176;2023-02-16T02:29:05;99245.44;;;2.37;96.73
13767;BME280;47980;48.794;9.176;2023-02-16T02:31:49;99243.63;;;2.21;96.49
13767;BME280;47980;48.794;9.176;2023-02-16T02:34:27;99237.75;;;2.30;97.44
13767;BME280;47980;48.794;9.176;2023-02-16T02:37:09;99238.16;;;2.22;98.15
13767;BME280;47980;48.794;9.176;2023-02-16T02:39:48;99233.63;;;2.17;98.52
13767;BME280;47980;48.794;9.176;2023-02-16T02:42:25;99238.56;;;2.14;98.05
13767;BME280;47980;48.794;9.176;2023-02-16T02:45:06;99229.84;;;2.25;98.78
13767;BME280;47980;48.794;9.176;2023-02-16T02:47:40;99225.25;;;2.15;98.33
13767;BME280;47980;48.794;9.176;2023-02-16T02:50:37;99230.97;;;2.12;98.08
13767;BME280;47980;48.794;9.176;2023-02-16T02:53:12;99232.00;;;2.11;98.50
13767;BME280;47980;48.794;9.176;2023-02-16T02:55:48;99234.66;;;2.16;97.89
13767;BME280;47980;48.794;9.176;2023-02-16T02:58:38;99236.66;;;2.09;98.43
13767;BME280;47980;48.794;9.176;2023-02-16T03:01:33;99227.88;;;2.15;97.56
13767;BME280;47980;48.794;9.176;2023-02-16T03:04:07;99222.00;;;2.08;98.50
13767;BME280;47980;48.794;9.176;2023-02-16T03:06:44;99220.34;;;2.02;98.19
13767;BME280;47980;48.794;9.176;2023-02-16T03:09:18;99225.66;;;2.07;98.90
13767;BME280;47980;48.794;9.176;2023-02-16T03:11:52;99219.53;;;2.19;97.53
13767;BME280;47980;48.794;9.176;2023-02-16T03:14:45;99220.50;;;2.12;98.28
13767;BME280;47980;48.794;9.176;2023-02-16T03:17:21;99216.38;;;2.00;98.35
13767;BME280;47980;48.794;9.176;2023-02-16T03:20:15;99221.59;;;2.00;97.97
13767;BME280;47980;48.794;9.176;2023-02-16T03:23:05;99221.69;;;2.05;98.59
13767;BME280;47980;48.794;9.176;2023-02-16T03:25:55;99219.22;;;2.15;98.73
13767;BME280;47980;48.794;9.176;2023-02-16T03:28:46;99221.91;;;2.20;97.45
13767;BME280;47980;48.794;9.176;2023-02-16T03:31:37;99221.53;;;2.11;97.85
13767;BME280;47980;48.794;9.176;2023-02-16T03:34:10;99224.94;;;2.12;98.77
13767;BME280;47980;48.794;9.176;2023-02-16T03:36:43;99218.91;;;2.11;98.76
13767;BME280;47980;48.794;9.176;2023-02-16T03:39:16;99220.44;;;2.07;98.23
13767;BME280;47980;48.794;9.176;2023-02-16T03:41:50;99232.06;;;2.16;97.83
13767;BME280;47980;48.794;9.176;2023-02-16T03:44:22;99222.22;;;2.24;97.48
13767;BME280;47980;48.794;9.176;2023-02-16T03:46:54;99224.28;;;2.22;97.06
13767;BME280;47980;48.794;9.176;2023-02-16T03:49:27;99226.03;;;2.16;97.21
13767;BME280;47980;48.794;9.176;2023-02-16T03:51:59;99232.94;;;2.22;97.93
13767;BME280;47980;48.794;9.176;2023-02-16T03:54:30;99226.97;;;2.27;97.70
13767;BME280;47980;48.794;9.176;2023-02-16T03:57:02;99231.00;;;2.34;96.72
13767;BME280;47980;48.794;9.176;2023-02-16T03:59:33;99239.50;;;2.25;97.20
13767;BME280;47980;48.794;9.176;2023-02-16T04:02:05;99241.78;;;2.21;97.34
13767;BME280;47980;48.794;9.176;2023-02-16T04:04:38;99232.50;;;2.30;96.62
13767;BME280;47980;48.794;9.176;2023-02-16T04:07:09;99240.53;;;2.24;97.51
13767;BME280;47980;48.794;9.176;2023-02-16T04:09:41;99242.97;;;2.30;96.50
13767;BME280;47980;48.794;9.176;2023-02-16T04:12:12;99251.69;;;2.36;96.39
13767;BME280;47980;48.794;9.176;2023-02-16T04:15:03;99243.22;;;2.29;96.27
13767;BME280;47980;48.794;9.176;2023-02-16T04:21:03;99249.25;;;2.29;95.61
13767;BME280;47980;48.794;9.176;2023-02-16T04:23:34;99245.72;;;2.19;96.22
13767;BME280;47980;48.794;9.176;2023-02-16T04:26:06;99250.78;;;2.25;96.77
13767;BME280;47980;48.794;9.176;2023-02-16T04:28:37;99250.69;;;2.20;96.45
13767;BME280;47980;48.794;9.176;2023-02-16T04:31:15;99253.13;;;2.27;95.01
13767;BME280;47980;48.794;9.176;2023-02-16T04:33:46;99248.69;;;2.27;94.67
13767;BME280;47980;48.794;9.176;2023-02-16T04:36:19;99252.94;;;2.11;95.95
13767;BME280;47980;48.794;9.176;2023-02-16T04:38:51;99256.19;;;2.02;97.13
13767;BME280;47980;48.794;9.176;2023-02-16T04:41:22;99251.91;;;1.96;96.28
13767;BME280;47980;48.794;9.176;2023-02-16T04:43:55;99251.59;;;1.92;97.25
13767;BME280;47980;48.794;9.176;2023-02-16T04:46:27;99257.63;;;1.92;96.79
13767;BME280;47980;48.794;9.176;2023-02-16T04:48:59;99249.28;;;1.96;96.47
13767;BME280;47980;48.794;9.176;2023-02-16T05:26:59;99251.03;;;1.73;99.67
13767;BME280;47980;48.794;9.176;2023-02-16T05:32:13;99259.84;;;1.84;97.73
13767;BME280;47980;48.794;9.176;2023-02-16T05:34:46;99267.06;;;1.77;98.64
13767;BME280;47980;48.794;9.176;2023-02-16T05:37:19;99260.47;;;1.74;98.42
13767;BME280;47980;48.794;9.176;2023-02-16T05:39:52;99264.53;;;1.82;97.45
13767;BME280;47980;48.794;9.176;2023-02-16T05:48:26;99264.38;;;1.72;96.63
13767;BME280;47980;48.794;9.176;2023-02-16T05:50:58;99271.63;;;1.69;97.15
13767;BME280;47980;48.794;9.176;2023-02-16T05:53:30;99273.75;;;1.56;98.31
13767;BME280;47980;48.794;9.176;2023-02-16T05:56:01;99258.00;;;1.51;99.69
13767;BME280;47980;48.794;9.176;2023-02-16T05:58:42;99268.78;;;1.54;99.63
13767;BME280;47980;48.794;9.176;2023-02-16T06:01:26;99274.78;;;1.55;100.00
13767;BME280;47980;48.794;9.176;2023-02-16T06:04:05;99278.13;;;1.67;98.79
13767;BME280;47980;48.794;9.176;2023-02-16T06:06:37;99282.50;;;1.61;98.12
13767;BME280;47980;48.794;9.176;2023-02-16T06:09:09;99284.06;;;1.62;99.06
13767;BME280;47980;48.794;9.176;2023-02-16T06:11:41;99285.69;;;1.63;98.81
13767;BME280;47980;48.794;9.176;2023-02-16T06:14:15;99288.75;;;1.60;98.76
13767;BME280;47980;48.794;9.176;2023-02-16T06:16:49;99291.28;;;1.55;100.00
13767;BME280;47980;48.794;9.176;2023-02-16T06:19:23;99294.53;;;1.46;100.00
13767;BME280;47980;48.794;9.176;2023-02-16T06:21:54;99293.50;;;1.47;100.00
13767;BME280;47980;48.794;9.176;2023-02-16T06:24:26;99300.28;;;1.48;100.00
13767;BME280;47980;48.794;9.176;2023-02-16T06:26:57;99301.38;;;1.63;99.91
13767;BME280;47980;48.794;9.176;2023-02-16T06:29:29;99306.03;;;1.61;98.58
13767;BME280;47980;48.794;9.176;2023-02-16T06:32:01;99297.88;;;1.58;98.83
13767;BME280;47980;48.794;9.176;2023-02-16T06:34:34;99298.00;;;1.51;100.00
13767;BME280;47980;48.794;9.176;2023-02-16T06:37:05;99302.59;;;1.44;100.00
13767;BME280;47980;48.794;9.176;2023-02-16T06:39:37;99304.97;;;1.46;100.00
13767;BME280;47980;48.794;9.176;2023-02-16T06:42:08;99303.09;;;1.58;100.00
13767;BME280;47980;48.794;9.176;2023-02-16T06:44:40;99301.50;;;1.57;98.90
13767;BME280;47980;48.794;9.176;2023-02-16T06:47:13;99299.91;;;1.56;98.25
13767;BME280;47980;48.794;9.176;2023-02-16T06:49:46;99304.13;;;1.57;99.10
13767;BME280;47980;48.794;9.176;2023-02-16T06:52:17;99301.03;;;1.60;99.82
13767;BME280;47980;48.794;9.176;2023-02-16T06:54:51;99311.44;;;1.72;99.72
13767;BME280;47980;48.794;9.176;2023-02-16T06:57:43;99304.28;;;1.67;99.44
13767;BME280;47980;48.794;9.176;2023-02-16T07:00:27;99315.69;;;1.78;99.05
13767;BME280;47980;48.794;9.176;2023-02-16T07:02:59;99315.56;;;1.84;99.02
13767;BME280;47980;48.794;9.176;2023-02-16T07:05:33;99314.56;;;1.85;99.86
13767;BME280;47980;48.794;9.176;2023-02-16T07:08:04;99310.63;;;1.88;98.74
13767;BME280;47980;48.794;9.176;2023-02-16T07:10:36;99313.19;;;2.00;98.18
13767;BME280;47980;48.794;9.176;2023-02-16T07:13:07;99316.84;;;2.15;98.11
13767;BME280;47980;48.794;9.176;2023-02-16T07:15:39;99312.94;;;2.35;97.57
13767;BME280;47980;48.794;9.176;2023-02-16T07:18:10;99306.63;;;2.53;96.11
13767;BME280;47980;48.794;9.176;2023-02-16T07:20:43;99310.53;;;2.72;96.12
13767;BME280;47980;48.794;9.176;2023-02-16T07:23:15;99311.78;;;2.86;93.94
13767;BME280;47980;48.794;9.176;2023-02-16T07:25:47;99307.22;;;2.99;92.73
13767;BME280;47980;48.794;9.176;2023-02-16T07:28:20;99317.75;;;3.04;91.12
13767;BME280;47980;48.794;9.176;2023-02-16T07:30:56;99321.84;;;3.17;91.69
13767;BME280;47980;48.794;9.176;2023-02-16T07:33:27;99313.53;;;3.25;90.41
13767;BME280;47980;48.794;9.176;2023-02-16T07:36:00;99312.22;;;3.49;89.24
13767;BME280;47980;48.794;9.176;2023-02-16T07:38:32;99320.91;;;3.55;88.54
13767;BME280;47980;48.794;9.176;2023-02-16T07:41:03;99319.94;;;3.61;86.56
13767;BME280;47980;48.794;9.176;2023-02-16T07:43:36;99323.53;;;3.82;87.30
13767;BME280;47980;48.794;9.176;2023-02-16T07:46:07;99325.66;;;3.85;85.49
13767;BME280;47980;48.794;9.176;2023-02-16T07:48:39;99328.53;;;3.83;84.35
13767;BME280;47980;48.794;9.176;2023-02-16T07:51:12;99326.81;;;3.99;82.66
13767;BME280;47980;48.794;9.176;2023-02-16T07:53:43;99333.66;;;4.00;84.21
13767;BME280;47980;48.794;9.176;2023-02-16T07:56:18;99336.06;;;3.75;83.10
13767;BME280;47980;48.794;9.176;2023-02-16T07:58:50;99341.81;;;3.72;83.39
13767;BME280;47980;48.794;9.176;2023-02-16T08:01:23;99333.03;;;3.88;84.42
13767;BME280;47980;48.794;9.176;2023-02-16T08:03:55;99348.16;;;4.08;82.25
13767;BME280;47980;48.794;9.176;2023-02-16T08:06:28;99352.75;;;4.23;82.71
13767;BME280;47980;48.794;9.176;2023-02-16T08:08:59;99347.00;;;4.26;81.22
13767;BME280;47980;48.794;9.176;2023-02-16T08:11:31;99350.44;;;4.69;80.08
13767;BME280;47980;48.794;9.176;2023-02-16T08:14:03;99348.66;;;4.85;78.82
13767;BME280;47980;48.794;9.176;2023-02-16T08:16:35;99347.66;;;5.01;77.45
13767;BME280;47980;48.794;9.176;2023-02-16T08:19:07;99346.66;;;5.07;76.51
13767;BME280;47980;48.794;9.176;2023-02-16T08:21:41;99354.09;;;5.25;76.19
13767;BME280;47980;48.794;9.176;2023-02-16T08:24:18;99338.56;;;5.29;75.72
13767;BME280;47980;48.794;9.176;2023-02-16T08:26:50;99343.63;;;5.46;75.68
13767;BME280;47980;48.794;9.176;2023-02-16T08:29:23;99342.56;;;5.42;72.55
13767;BME280;47980;48.794;9.176;2023-02-16T08:31:54;99349.22;;;5.75;74.49
13767;BME280;47980;48.794;9.176;2023-02-16T08:34:26;99344.78;;;6.01;71.73
13767;BME280;47980;48.794;9.176;2023-02-16T08:36:59;99342.16;;;6.21;70.98
13767;BME280;47980;48.794;9.176;2023-02-16T08:39:32;99344.78;;;6.21;71.12
13767;BME280;47980;48.794;9.176;2023-02-16T08:42:04;99344.75;;;6.52;70.67
13767;BME280;47980;48.794;9.176;2023-02-16T08:44:36;99340.22;;;6.78;69.87
13767;BME280;47980;48.794;9.176;2023-02-16T08:47:07;99334.50;;;6.50;70.79
13767;BME280;47980;48.794;9.176;2023-02-16T08:49:40;99336.31;;;6.65;69.72
13767;BME280;47980;48.794;9.176;2023-02-16T08:52:14;99346.50;;;6.97;68.20
13767;BME280;47980;48.794;9.176;2023-02-16T08:54:46;99344.28;;;7.15;67.56
13767;BME280;47980;48.794;9.176;2023-02-16T08:57:18;99342.38;;;7.31;68.08
13767;BME280;47980;48.794;9.176;2023-02-16T08:59:49;99346.00;;;6.90;69.06
13767;BME280;47980;48.794;9.176;2023-02-16T09:02:50;99340.34;;;7.17;68.66
13767;BME280;47980;48.794;9.176;2023-02-16T09:05:22;99340.28;;;7.28;67.73
13767;BME280;47980;48.794;9.176;2023-02-16T09:07:55;99333.25;;;7.57;66.78
13767;BME280;47980;48.794;9.176;2023-02-16T09:10:26;99342.31;;;7.85;65.68
13767;BME280;47980;48.794;9.176;2023-02-16T09:12:58;99331.09;;;7.99;66.61
13767;BME280;47980;48.794;9.176;2023-02-16T09:15:31;99327.00;;;8.16;65.07
13767;BME280;47980;48.794;9.176;2023-02-16T09:18:03;99327.81;;;8.17;64.22
13767;BME280;47980;48.794;9.176;2023-02-16T09:20:36;99326.31;;;8.40;64.13
13767;BME280;47980;48.794;9.176;2023-02-16T09:23:10;99318.38;;;8.40;63.94
13767;BME280;47980;48.794;9.176;2023-02-16T09:25:42;99329.94;;;8.73;62.56
13767;BME280;47980;48.794;9.176;2023-02-16T09:28:14;99329.16;;;8.73;63.63
13767;BME280;47980;48.794;9.176;2023-02-16T09:30:45;99326.00;;;8.95;62.96
13767;BME280;47980;48.794;9.176;2023-02-16T09:33:17;99330.72;;;8.98;61.48
13767;BME280;47980;48.794;9.176;2023-02-16T09:35:49;99339.25;;;9.13;62.12
13767;BME280;47980;48.794;9.176;2023-02-16T09:38:22;99326.16;;;9.22;61.73
13767;BME280;47980;48.794;9.176;2023-02-16T09:40:55;99329.63;;;9.42;62.06
13767;BME280;47980;48.794;9.176;2023-02-16T09:43:32;99321.25;;;9.53;61.54
13767;BME280;47980;48.794;9.176;2023-02-16T09:46:12;99324.03;;;9.62;60.16
13767;BME280;47980;48.794;9.176;2023-02-16T09:48:47;99327.19;;;9.64;59.60
13767;BME280;47980;48.794;9.176;2023-02-16T09:51:22;99323.88;;;9.72;60.36
13767;BME280;47980;48.794;9.176;2023-02-16T09:54:00;99317.91;;;9.48;61.26
13767;BME280;47980;48.794;9.176;2023-02-16T09:56:37;99322.91;;;9.49;61.95
13767;BME280;47980;48.794;9.176;2023-02-16T09:59:14;99323.47;;;9.65;60.92
13767;BME280;47980;48.794;9.176;2023-02-16T10:01:55;99310.06;;;10.08;59.86
13767;BME280;47980;48.794;9.176;2023-02-16T10:04:37;99308.25;;;9.89;59.59
13767;BME280;47980;48.794;9.176;2023-02-16T10:07:19;99311.03;;;9.98;59.51
13767;BME280;47980;48.794;9.176;2023-02-16T10:09:58;99318.81;;;10.08;59.15
13767;BME280;47980;48.794;9.176;2023-02-16T10:12:35;99305.25;;;9.96;58.90
13767;BME280;47980;48.794;9.176;2023-02-16T10:15:14;99302.22;;;10.17;59.27
13767;BME280;47980;48.794;9.176;2023-02-16T10:17:53;99317.16;;;10.31;59.38
13767;BME280;47980;48.794;9.176;2023-02-16T10:20:29;99306.44;;;10.36;59.31
13767;BME280;47980;48.794;9.176;2023-02-16T10:23:09;99310.09;;;10.54;57.62
13767;BME280;47980;48.794;9.176;2023-02-16T10:25:48;99313.16;;;10.62;58.57
13767;BME280;47980;48.794;9.176;2023-02-16T10:28:30;99317.66;;;10.61;56.91
13767;BME280;47980;48.794;9.176;2023-02-16T10:31:11;99310.69;;;10.79;56.57
13767;BME280;47980;48.794;9.176;2023-02-16T10:33:44;99311.16;;;10.95;56.40
13767;BME280;47980;48.794;9.176;2023-02-16T10:36:25;99310.88;;;10.96;56.47
13767;BME280;47980;48.794;9.176;2023-02-16T10:39:02;99301.66;;;11.44;55.60
13767;BME280;47980;48.794;9.176;2023-02-16T10:41:41;99299.31;;;11.28;55.88
13767;BME280;47980;48.794;9.176;2023-02-16T10:44:19;99289.38;;;11.34;53.20
13767;BME280;47980;48.794;9.176;2023-02-16T10:46:54;99294.09;;;11.60;53.46
13767;BME280;47980;48.794;9.176;2023-02-16T10:49:28;99291.88;;;11.75;52.72
13767;BME280;47980;48.794;9.176;2023-02-16T10:52:02;99292.66;;;11.76;53.63
13767;BME280;47980;48.794;9.176;2023-02-16T10:54:35;99286.72;;;11.79;53.06
13767;BME280;47980;48.794;9.176;2023-02-16T10:57:12;99280.47;;;11.97;53.11
13767;BME280;47980;48.794;9.176;2023-02-16T10:59:50;99285.81;;;12.28;51.50
13767;BME280;47980;48.794;9.176;2023-02-16T11:02:25;99282.91;;;12.16;52.36
13767;BME280;47980;48.794;9.176;2023-02-16T11:04:58;99275.78;;;12.34;52.12
13767;BME280;47980;48.794;9.176;2023-02-16T11:07:30;99274.81;;;12.61;52.26
13767;BME280;47980;48.794;9.176;2023-02-16T11:10:20;99272.50;;;12.68;51.09
13767;BME280;47980;48.794;9.176;2023-02-16T11:12:55;99268.13;;;12.81;50.83
13767;BME280;47980;48.794;9.176;2023-02-16T11:15:28;99267.88;;;12.51;49.81
13767;BME280;47980;48.794;9.176;2023-02-16T11:18:01;99264.63;;;12.63;50.72
13767;BME280;47980;48.794;9.176;2023-02-16T11:20:51;99259.78;;;12.57;50.50
13767;BME280;47980;48.794;9.176;2023-02-16T11:23:25;99266.50;;;12.63;51.08
13767;BME280;47980;48.794;9.176;2023-02-16T11:26:00;99255.13;;;12.80;50.28
13767;BME280;47980;48.794;9.176;2023-02-16T11:28:35;99257.84;;;12.97;50.51
13767;BME280;47980;48.794;9.176;2023-02-16T11:31:14;99258.75;;;12.84;50.43
13767;BME280;47980;48.794;9.176;2023-02-16T11:33:56;99254.41;;;12.96;50.12
13767;BME280;47980;48.794;9.176;2023-02-16T11:36:32;99251.59;;;13.19;49.15
13767;BME280;47980;48.794;9.176;2023-02-16T11:39:10;99255.00;;;13.02;48.81
13767;BME280;47980;48.794;9.176;2023-02-16T11:41:49;99253.09;;;12.85;49.26
13767;BME280;47980;48.794;9.176;2023-02-16T11:44:26;99247.97;;;13.06;49.59
13767;BME280;47980;48.794;9.176;2023-02-16T11:47:01;99240.66;;;13.29;48.59
13767;BME280;47980;48.794;9.176;2023-02-16T11:49:36;99239.69;;;13.08;48.50
13767;BME280;47980;48.794;9.176;2023-02-16T11:52:23;99236.22;;;13.07;49.01
13767;BME280;47980;48.794;9.176;2023-02-16T11:54:57;99231.50;;;13.21;48.71
13767;BME280;47980;48.794;9.176;2023-02-16T11:57:31;99221.81;;;13.17;48.78
13767;BME280;47980;48.794;9.176;2023-02-16T12:00:15;99228.41;;;13.19;48.64
13767;BME280;47980;48.794;9.176;2023-02-16T12:03:08;99213.19;;;13.29;48.70
13767;BME280;47980;48.794;9.176;2023-02-16T12:05:51;99209.41;;;13.21;48.21
13767;BME280;47980;48.794;9.176;2023-02-16T12:08:45;99202.88;;;13.27;48.84
13767;BME280;47980;48.794;9.176;2023-02-16T12:11:30;99212.22;;;13.77;48.25
13767;BME280;47980;48.794;9.176;2023-02-16T12:14:19;99196.53;;;13.58;48.99
13767;BME280;47980;48.794;9.176;2023-02-16T12:17:00;99196.53;;;13.58;48.17
13767;BME280;47980;48.794;9.176;2023-02-16T12:19:40;99196.22;;;13.77;47.39
13767;BME280;47980;48.794;9.176;2023-02-16T12:22:25;99192.59;;;14.19;46.21
13767;BME280;47980;48.794;9.176;2023-02-16T12:25:18;99195.19;;;14.66;45.49
13767;BME280;47980;48.794;9.176;2023-02-16T12:27:54;99188.75;;;14.67;45.81
13767;BME280;47980;48.794;9.176;2023-02-16T12:30:37;99192.66;;;14.40;45.14
13767;BME280;47980;48.794;9.176;2023-02-16T12:33:23;99184.00;;;14.43;45.54
13767;BME280;47980;48.794;9.176;2023-02-16T12:39:04;99168.81;;;14.35;44.88
13767;BME280;47980;48.794;9.176;2023-02-16T12:41:46;99169.47;;;14.32;46.17
13767;BME280;47980;48.794;9.176;2023-02-16T12:44:31;99162.78;;;14.47;46.11
13767;BME280;47980;48.794;9.176;2023-02-16T12:47:10;99163.47;;;14.35;45.82
13767;BME280;47980;48.794;9.176;2023-02-16T12:49:50;99158.97;;;14.27;46.02
13767;BME280;47980;48.794;9.176;2023-02-16T12:52:29;99153.16;;;14.25;46.97
13767;BME280;47980;48.794;9.176;2023-02-16T12:55:17;99155.97;;;14.58;46.15
13767;BME280;47980;48.794;9.176;2023-02-16T12:57:55;99150.59;;;14.67;44.74
13767;BME280;47980;48.794;9.176;2023-02-16T13:00:36;99155.06;;;14.54;44.41
13767;BME280;47980;48.794;9.176;2023-02-16T13:03:22;99148.38;;;14.39;45.99
13767;BME280;47980;48.794;9.176;2023-02-16T13:06:10;99142.19;;;14.48;45.44
13767;BME280;47980;48.794;9.176;2023-02-16T13:08:47;99124.53;;;14.64;44.52
13767;BME280;47980;48.794;9.176;2023-02-16T13:11:23;99128.38;;;14.75;44.79
13767;BME280;47980;48.794;9.176;2023-02-16T13:14:00;99127.38;;;14.80;44.75
13767;BME280;47980;48.794;9.176;2023-02-16T13:16:39;99128.69;;;14.74;44.77
13767;BME280;47980;48.794;9.176;2023-02-16T13:19:13;99120.03;;;14.77;44.84
13767;BME280;47980;48.794;9.176;2023-02-16T13:25:15;99124.97;;;14.87;45.72
13767;BME280;47980;48.794;9.176;2023-02-16T13:27:58;99141.06;;;14.57;45.54
13767;BME280;47980;48.794;9.176;2023-02-16T13:30:47;99123.41;;;14.65;45.33
13767;BME280;47980;48.794;9.176;2023-02-16T13:33:37;99120.22;;;14.72;45.60
13767;BME280;47980;48.794;9.176;2023-02-16T13:36:25;99127.50;;;14.62;46.52
13767;BME280;47980;48.794;9.176;2023-02-16T13:39:35;99123.56;;;14.68;46.14
13767;BME280;47980;48.794;9.176;2023-02-16T13:42:46;99123.81;;;14.76;45.52
13767;BME280;47980;48.794;9.176;2023-02-16T13:45:23;99124.31;;;14.69;46.35
13767;BME280;47980;48.794;9.176;2023-02-16T13:47:57;99131.38;;;14.44;46.54
13767;BME280;47980;48.794;9.176;2023-02-16T13:50:31;99124.47;;;14.43;46.90
13767;BME280;47980;48.794;9.176;2023-02-16T13:53:15;99128.75;;;14.65;47.39
13767;BME280;47980;48.794;9.176;2023-02-16T13:55:48;99125.34;;;14.98;47.04
13767;BME280;47980;48.794;9.176;2023-02-16T13:58:30;99124.72;;;14.80;47.05
13767;BME280;47980;48.794;9.176;2023-02-16T14:01:33;99123.59;;;15.02;47.33
13767;BME280;47980;48.794;9.176;2023-02-16T14:04:13;99118.84;;;15.07;46.61
13767;BME280;47980;48.794;9.176;2023-02-16T14:07:27;99115.41;;;15.19;46.78
13767;BME280;47980;48.794;9.176;2023-02-16T14:10:02;99133.91;;;15.24;47.12
13767;BME280;47980;48.794;9.176;2023-02-16T14:12:37;99126.47;;;14.97;48.36
13767;BME280;47980;48.794;9.176;2023-02-16T14:15:18;99127.00;;;14.90;48.36
13767;BME280;47980;48.794;9.176;2023-02-16T14:17:50;99119.22;;;14.97;47.43
13767;BME280;47980;48.794;9.176;2023-02-16T14:20:27;99123.03;;;14.96;47.99
13767;BME280;47980;48.794;9.176;2023-02-16T14:23:00;99125.44;;;14.89;48.05
13767;BME280;47980;48.794;9.176;2023-02-16T14:25:35;99125.31;;;14.64;48.19
13767;BME280;47980;48.794;9.176;2023-02-16T14:31:19;99124.38;;;14.81;47.84
13767;BME280;47980;48.794;9.176;2023-02-16T14:34:00;99127.91;;;14.73;48.09
13767;BME280;47980;48.794;9.176;2023-02-16T14:36:33;99133.59;;;14.92;47.95
13767;BME280;47980;48.794;9.176;2023-02-16T14:39:09;99127.72;;;14.78;47.99
13767;BME280;47980;48.794;9.176;2023-02-16T14:41:41;99135.91;;;14.73;48.47
13767;BME280;47980;48.794;9.176;2023-02-16T14:44:31;99142.63;;;14.58;49.05
13767;BME280;47980;48.794;9.176;2023-02-16T14:47:15;99135.78;;;14.69;48.59
13767;BME280;47980;48.794;9.176;2023-02-16T14:50:06;99139.69;;;14.72;49.48
13767;BME280;47980;48.794;9.176;2023-02-16T14:55:57;99147.63;;;14.81;48.61
13767;BME280;47980;48.794;9.176;2023-02-16T14:58:37;99149.75;;;14.75;49.49
13767;BME280;47980;48.794;9.176;2023-02-16T15:01:12;99138.78;;;14.68;49.93
13767;BME280;47980;48.794;9.176;2023-02-16T15:03:46;99147.69;;;14.51;50.33
13767;BME280;47980;48.794;9.176;2023-02-16T15:06:28;99135.91;;;14.52;50.63
13767;BME280;47980;48.794;9.176;2023-02-16T15:09:04;99142.84;;;14.44;50.35